createdAt,value
2022-09-12T00:00:10.176Z,100660.92
2022-09-12T00:03:03.630Z,100671.34
2022-09-12T00:05:35.802Z,100670.46
2022-09-12T00:08:08.139Z,100669.98
2022-09-12T00:10:43.902Z,100672.30
2022-09-12T00:13:16.060Z,100671.34
2022-09-12T00:15:48.218Z,100669.58
2022-09-12T00:18:20.555Z,100670.46
2022-09-12T00:20:53.749Z,100668.30
2022-09-12T00:23:25.769Z,100671.49
2022-09-12T00:25:57.697Z,100666.05
2022-09-12T00:28:29.851Z,100649.77
2022-09-12T00:31:05.094Z,100668.45
2022-09-12T00:33:37.943Z,100666.61
2022-09-12T00:36:12.558Z,100662.91
2022-09-12T00:38:45.286Z,100662.04
2022-09-12T00:41:20.290Z,100661.39
2022-09-12T00:43:53.371Z,100669.41
2022-09-12T00:46:42.825Z,100668.70
2022-09-12T00:49:22.039Z,100676.61
2022-09-12T00:51:59.916Z,100669.56
2022-09-12T00:54:37.530Z,100671.39
2022-09-12T00:57:13.316Z,100671.24
2022-09-12T00:59:49.374Z,100673.48
2022-09-12T01:02:22.137Z,100674.36
2022-09-12T01:04:55.734Z,100672.04
2022-09-12T01:07:28.176Z,100673.95
2022-09-12T01:10:00.427Z,100671.27
2022-09-12T01:12:33.187Z,100675.27
2022-09-12T01:15:05.666Z,100674.66
2022-09-12T01:17:50.116Z,100677.39
2022-09-12T01:20:41.382Z,100674.74
2022-09-12T01:23:34.081Z,100663.33
2022-09-12T01:26:29.301Z,100680.12
2022-09-12T01:29:26.931Z,100676.98
2022-09-12T01:32:09.956Z,100675.77
2022-09-12T01:34:49.146Z,100677.27
2022-09-12T01:37:31.604Z,100654.91
2022-09-12T01:40:14.299Z,100673.91
2022-09-12T01:42:54.755Z,100666.54
2022-09-12T01:45:33.879Z,100674.55
2022-09-12T01:48:13.407Z,100682.24
2022-09-12T01:50:52.751Z,100680.70
2022-09-12T01:53:28.539Z,100678.63
2022-09-12T01:56:07.401Z,100677.66
2022-09-12T01:58:45.215Z,100673.49
2022-09-12T02:01:22.923Z,100673.42
2022-09-12T02:04:05.837Z,100675.74
2022-09-12T02:06:42.983Z,100671.26
2022-09-12T02:09:22.369Z,100675.27
2022-09-12T02:11:58.634Z,100672.29
2022-09-12T02:14:33.474Z,100675.58
2022-09-12T02:17:08.824Z,100678.39
2022-09-12T02:19:47.380Z,100680.78
2022-09-12T02:22:22.950Z,100683.11
2022-09-12T02:24:58.863Z,100685.02
2022-09-12T02:27:38.189Z,100682.86
2022-09-12T02:30:14.412Z,100669.06
2022-09-12T02:32:59.848Z,100682.45
2022-09-12T02:35:39.120Z,100682.05
2022-09-12T02:38:15.966Z,100682.77
2022-09-12T02:40:48.916Z,100683.96
2022-09-12T02:43:21.141Z,100680.50
2022-09-12T02:45:55.040Z,100678.17
2022-09-12T02:48:31.163Z,100668.37
2022-09-12T02:51:03.595Z,100668.77
2022-09-12T02:53:37.088Z,100682.10
2022-09-12T02:56:14.638Z,100684.67
2022-09-12T02:58:47.563Z,100679.86
2022-09-12T03:01:30.297Z,100680.34
2022-09-12T03:04:33.540Z,100677.68
2022-09-12T03:07:16.547Z,100679.37
2022-09-12T03:10:00.136Z,100679.42
2022-09-12T03:12:48.119Z,100684.04
2022-09-12T03:15:35.126Z,100677.63
2022-09-12T03:18:26.265Z,100682.54
2022-09-12T03:21:09.613Z,100682.59
2022-09-12T03:23:47.804Z,100684.98
2022-09-12T03:26:27.352Z,100684.67
2022-09-12T03:29:01.343Z,100684.66
2022-09-12T03:31:33.461Z,100688.44
2022-09-12T03:34:06.017Z,100692.44
2022-09-12T03:36:39.809Z,100690.43
2022-09-12T03:39:12.455Z,100690.69
2022-09-12T03:41:44.597Z,100688.65
2022-09-12T03:44:18.013Z,100689.92
2022-09-12T03:46:50.646Z,100690.27
2022-09-12T03:49:22.628Z,100690.11
2022-09-12T03:51:54.814Z,100689.88
2022-09-12T03:54:27.342Z,100691.08
2022-09-12T03:56:59.248Z,100688.84
2022-09-12T03:59:31.592Z,100685.85
2022-09-12T04:02:03.800Z,100686.56
2022-09-12T04:04:35.942Z,100690.27
2022-09-12T04:07:08.190Z,100691.10
2022-09-12T04:09:40.260Z,100693.10
2022-09-12T04:12:12.776Z,100691.88
2022-09-12T04:14:44.995Z,100691.25
2022-09-12T04:17:17.133Z,100691.97
2022-09-12T04:19:49.135Z,100689.98
2022-09-12T04:22:21.197Z,100679.15
2022-09-12T04:24:53.219Z,100691.13
2022-09-12T04:27:26.658Z,100689.69
2022-09-12T04:29:59.630Z,100689.36
2022-09-12T04:32:32.504Z,100687.73
2022-09-12T04:35:04.899Z,100693.51
2022-09-12T04:37:37.131Z,100694.98
2022-09-12T04:40:10.499Z,100697.23
2022-09-12T04:42:42.580Z,100694.67
2022-09-12T04:45:16.781Z,100693.30
2022-09-12T04:47:48.983Z,100695.33
2022-09-12T04:50:21.694Z,100694.85
2022-09-12T04:52:54.381Z,100695.56
2022-09-12T04:55:26.605Z,100697.58
2022-09-12T04:57:58.617Z,100698.30
2022-09-12T05:00:30.737Z,100700.70
2022-09-12T05:03:02.953Z,100700.77
2022-09-12T05:05:34.935Z,100707.16
2022-09-12T05:08:06.889Z,100702.38
2022-09-12T05:10:39.214Z,100704.92
2022-09-12T05:13:11.398Z,100700.16
2022-09-12T05:15:43.714Z,100715.47
2022-09-12T05:18:15.657Z,100716.30
2022-09-12T05:20:47.649Z,100713.17
2022-09-12T05:23:19.708Z,100703.37
2022-09-12T05:25:57.645Z,100721.39
2022-09-12T05:28:32.946Z,100723.81
2022-09-12T05:31:06.626Z,100720.60
2022-09-12T05:33:40.728Z,100723.98
2022-09-12T05:36:15.603Z,100729.02
2022-09-12T05:38:48.155Z,100731.11
2022-09-12T05:41:24.973Z,100731.84
2022-09-12T05:44:00.784Z,100732.47
2022-09-12T05:46:38.093Z,100723.48
2022-09-12T05:49:12.206Z,100736.58
2022-09-12T05:51:45.977Z,100738.95
2022-09-12T05:54:19.479Z,100736.23
2022-09-12T05:56:51.515Z,100740.02
2022-09-12T05:59:24.216Z,100741.58
2022-09-12T06:01:56.317Z,100736.85
2022-09-12T06:04:29.406Z,100742.45
2022-09-12T06:07:01.601Z,100744.98
2022-09-12T06:09:33.608Z,100745.36
2022-09-12T06:12:06.461Z,100746.80
2022-09-12T06:14:39.246Z,100745.70
2022-09-12T06:17:11.390Z,100749.80
2022-09-12T06:19:43.441Z,100736.16
2022-09-12T06:22:15.604Z,100734.27
2022-09-12T06:24:47.711Z,100752.44
2022-09-12T06:27:19.778Z,100743.79
2022-09-12T06:29:51.736Z,100751.33
2022-09-12T06:32:23.637Z,100752.99
2022-09-12T06:34:55.870Z,100752.55
2022-09-12T06:37:28.514Z,100752.33
2022-09-12T06:40:02.003Z,100751.38
2022-09-12T06:42:34.835Z,100755.40
2022-09-12T06:45:07.805Z,100756.13
2022-09-12T06:47:39.925Z,100757.36
2022-09-12T06:50:12.809Z,100761.28
2022-09-12T06:52:45.568Z,100753.35
2022-09-12T06:55:20.406Z,100755.67
2022-09-12T06:57:55.512Z,100755.92
2022-09-12T07:00:27.574Z,100755.37
2022-09-12T07:02:59.783Z,100762.34
2022-09-12T07:05:31.864Z,100763.22
2022-09-12T07:08:04.109Z,100756.58
2022-09-12T07:10:36.214Z,100751.51
2022-09-12T07:13:08.199Z,100757.53
2022-09-12T07:15:40.496Z,100757.39
2022-09-12T07:18:14.108Z,100763.88
2022-09-12T07:20:46.358Z,100760.45
2022-09-12T07:23:18.376Z,100762.91
2022-09-12T07:25:57.318Z,100766.38
2022-09-12T07:28:30.801Z,100767.83
2022-09-12T07:31:10.863Z,100768.64
2022-09-12T07:33:44.127Z,100770.64
2022-09-12T07:36:18.040Z,100774.17
2022-09-12T07:38:50.207Z,100771.53
2022-09-12T07:41:25.059Z,100778.75
2022-09-12T07:43:56.817Z,100773.28
2022-09-12T07:46:31.433Z,100774.90
2022-09-12T07:49:05.699Z,100772.66
2022-09-12T07:51:37.867Z,100766.97
2022-09-12T07:54:11.978Z,100769.12
2022-09-12T07:56:44.476Z,100770.08
2022-09-12T07:59:35.382Z,100755.96
2022-09-12T08:02:16.610Z,100774.73
2022-09-12T08:04:49.841Z,100777.77
2022-09-12T08:07:22.016Z,100776.38
2022-09-12T08:09:54.594Z,100776.92
2022-09-12T08:12:26.645Z,100776.05
2022-09-12T08:14:58.589Z,100777.73
2022-09-12T08:17:31.173Z,100777.40
2022-09-12T08:20:04.295Z,100774.73
2022-09-12T08:22:36.495Z,100775.84
2022-09-12T08:25:10.248Z,100778.64
2022-09-12T08:27:43.084Z,100789.25
2022-09-12T08:30:16.906Z,100789.27
2022-09-12T08:32:49.157Z,100789.98
2022-09-12T08:35:21.323Z,100789.56
2022-09-12T08:37:53.385Z,100786.10
2022-09-12T08:40:25.913Z,100789.46
2022-09-12T08:43:04.695Z,100789.35
2022-09-12T08:45:44.537Z,100786.67
2022-09-12T08:48:17.224Z,100785.64
2022-09-12T08:50:50.121Z,100785.79
2022-09-12T08:53:28.151Z,100787.48
2022-09-12T08:56:02.064Z,100782.49
2022-09-12T08:58:40.706Z,100782.96
2022-09-12T09:01:24.800Z,100779.41
2022-09-12T09:04:28.929Z,100779.35
2022-09-12T09:07:16.976Z,100781.33
2022-09-12T09:10:05.605Z,100782.74
2022-09-12T09:12:45.992Z,100780.92
2022-09-12T09:15:34.270Z,100784.27
2022-09-12T09:18:12.066Z,100780.70
2022-09-12T09:20:49.806Z,100765.31
2022-09-12T09:23:28.039Z,100779.77
2022-09-12T09:26:07.240Z,100772.35
2022-09-12T09:28:46.499Z,100774.27
2022-09-12T09:31:20.967Z,100770.59
2022-09-12T09:33:55.430Z,100766.13
2022-09-12T09:36:35.823Z,100769.77
2022-09-12T09:39:16.349Z,100763.73
2022-09-12T09:42:03.811Z,100760.89
2022-09-12T09:44:36.189Z,100767.03
2022-09-12T09:47:11.790Z,100770.34
2022-09-12T09:49:44.010Z,100762.98
2022-09-12T09:52:18.061Z,100762.77
2022-09-12T09:54:57.640Z,100765.88
2022-09-12T09:57:44.662Z,100766.86
2022-09-12T10:00:27.226Z,100754.38
2022-09-12T10:03:18.967Z,100768.60
2022-09-12T10:05:53.331Z,100762.22
2022-09-12T10:08:27.936Z,100764.10
2022-09-12T10:11:03.109Z,100765.96
2022-09-12T10:13:40.898Z,100770.08
2022-09-12T10:16:24.141Z,100767.57
2022-09-12T10:18:57.791Z,100767.52
2022-09-12T10:21:35.275Z,100768.09
2022-09-12T10:24:22.930Z,100750.41
2022-09-12T10:26:57.830Z,100760.96
2022-09-12T10:29:31.514Z,100759.34
2022-09-12T10:32:08.358Z,100755.98
2022-09-12T10:34:45.107Z,100759.67
2022-09-12T10:37:34.607Z,100765.45
2022-09-12T10:40:22.920Z,100762.27
2022-09-12T10:42:57.033Z,100757.96
2022-09-12T10:45:32.335Z,100758.16
2022-09-12T10:48:23.224Z,100754.13
2022-09-12T10:50:55.348Z,100752.84
2022-09-12T10:53:34.111Z,100748.50
2022-09-12T10:56:12.107Z,100747.57
2022-09-12T10:59:00.999Z,100743.56
2022-09-12T11:01:42.229Z,100739.73
2022-09-12T11:04:27.721Z,100743.91
2022-09-12T11:07:19.797Z,100744.36
2022-09-12T11:10:00.859Z,100744.06
2022-09-12T11:12:40.743Z,100737.84
2022-09-12T11:15:31.113Z,100735.02
2022-09-12T11:18:10.232Z,100732.98
2022-09-12T11:20:59.750Z,100733.87
2022-09-12T11:24:05.024Z,100730.77
2022-09-12T11:26:58.420Z,100737.60
2022-09-12T11:29:45.861Z,100731.10
2022-09-12T11:32:46.314Z,100730.52
2022-09-12T11:35:26.248Z,100726.21
2022-09-12T11:38:14.956Z,100733.17
2022-09-12T11:40:52.271Z,100736.64
2022-09-12T11:43:36.811Z,100738.08
2022-09-12T11:46:11.767Z,100732.48
2022-09-12T11:48:51.111Z,100733.28
2022-09-12T11:51:26.891Z,100731.31
2022-09-12T11:54:06.324Z,100733.98
2022-09-12T11:56:44.196Z,100734.10
2022-09-12T11:59:25.957Z,100727.87
2022-09-12T12:02:01.325Z,100730.05
2022-09-12T12:04:40.759Z,100729.13
2022-09-12T12:07:18.039Z,100724.97
2022-09-12T12:09:53.524Z,100727.90
2022-09-12T12:12:29.843Z,100725.84
2022-09-12T12:15:03.150Z,100719.71
2022-09-12T12:17:35.806Z,100720.58
2022-09-12T12:20:17.239Z,100718.04
2022-09-12T12:22:56.172Z,100713.05
2022-09-12T12:25:41.941Z,100718.65
2022-09-12T12:28:34.932Z,100704.95
2022-09-12T12:31:07.521Z,100714.19
2022-09-12T12:34:16.381Z,100713.45
2022-09-12T12:36:50.615Z,100719.77
2022-09-12T12:39:56.344Z,100714.17
2022-09-12T12:43:05.046Z,100708.20
2022-09-12T12:46:06.163Z,100708.98
2022-09-12T12:48:51.517Z,100705.91
2022-09-12T12:51:44.867Z,100694.41
2022-09-12T12:54:50.676Z,100701.77
2022-09-12T12:57:48.106Z,100688.23
2022-09-12T13:00:35.942Z,100699.88
2022-09-12T13:03:23.649Z,100696.78
2022-09-12T13:06:01.634Z,100693.60
2022-09-12T13:08:36.356Z,100687.95
2022-09-12T13:11:13.227Z,100692.14
2022-09-12T13:13:53.876Z,100685.56
2022-09-12T13:16:35.482Z,100684.33
2022-09-12T13:19:17.971Z,100684.35
2022-09-12T13:22:01.067Z,100682.69
2022-09-12T13:24:33.323Z,100682.43
2022-09-12T13:27:16.628Z,100682.98
2022-09-12T13:29:48.702Z,100689.93
2022-09-12T13:32:21.091Z,100687.09
2022-09-12T13:35:09.589Z,100686.98
2022-09-12T13:37:51.576Z,100683.90
2022-09-12T13:40:34.813Z,100682.71
2022-09-12T13:43:16.451Z,100683.27
2022-09-12T13:45:49.936Z,100689.15
2022-09-12T13:48:26.867Z,100693.07
2022-09-12T13:51:01.728Z,100695.41
2022-09-12T13:53:42.367Z,100690.36
2022-09-12T13:56:19.204Z,100692.07
2022-09-12T13:58:59.254Z,100688.43
2022-09-12T14:01:42.729Z,100685.48
2022-09-12T14:04:38.382Z,100682.14
2022-09-12T14:07:15.036Z,100677.41
2022-09-12T14:09:54.472Z,100679.14
2022-09-12T14:12:30.346Z,100675.33
2022-09-12T14:15:02.915Z,100676.36
2022-09-12T14:17:39.690Z,100680.27
2022-09-12T14:20:18.589Z,100677.52
2022-09-12T14:22:52.164Z,100677.55
2022-09-12T14:25:29.682Z,100677.30
2022-09-12T14:28:02.028Z,100663.47
2022-09-12T14:30:36.377Z,100676.39
2022-09-12T14:33:22.231Z,100672.51
2022-09-12T14:36:09.216Z,100667.00
2022-09-12T14:38:45.402Z,100670.66
2022-09-12T14:41:25.507Z,100667.20
2022-09-12T14:44:01.225Z,100663.48
2022-09-12T14:46:36.897Z,100667.33
2022-09-12T14:49:16.729Z,100667.77
2022-09-12T14:51:57.040Z,100666.38
2022-09-12T14:54:44.514Z,100668.20
2022-09-12T14:57:38.966Z,100669.23
2022-09-12T15:00:22.298Z,100668.33
2022-09-12T15:02:55.754Z,100649.96
2022-09-12T15:05:29.580Z,100660.61
2022-09-12T15:08:02.792Z,100668.20
2022-09-12T15:10:38.635Z,100666.02
2022-09-12T15:13:17.105Z,100668.53
2022-09-12T15:15:51.410Z,100668.55
2022-09-12T15:18:25.924Z,100670.42
2022-09-12T15:21:03.031Z,100672.75
2022-09-12T15:23:40.239Z,100668.33
2022-09-12T15:26:13.550Z,100674.32
2022-09-12T15:28:47.615Z,100680.84
2022-09-12T15:31:26.774Z,100675.69
2022-09-12T15:34:00.453Z,100675.27
2022-09-12T15:36:33.380Z,100677.03
2022-09-12T15:39:05.527Z,100660.58
2022-09-12T15:41:39.399Z,100676.70
2022-09-12T15:44:14.842Z,100678.88
2022-09-12T15:46:47.692Z,100678.20
2022-09-12T15:49:19.681Z,100677.04
2022-09-12T15:51:51.689Z,100678.25
2022-09-12T15:54:23.863Z,100678.12
2022-09-12T15:56:56.114Z,100681.45
2022-09-12T15:59:28.311Z,100684.20
2022-09-12T16:02:00.513Z,100682.46
2022-09-12T16:04:33.028Z,100683.47
2022-09-12T16:07:05.334Z,100676.15
2022-09-12T16:09:37.649Z,100675.13
2022-09-12T16:12:10.974Z,100676.77
2022-09-12T16:14:43.169Z,100673.06
2022-09-12T16:17:15.880Z,100659.16
2022-09-12T16:19:48.395Z,100668.36
2022-09-12T16:22:20.663Z,100668.86
2022-09-12T16:24:53.208Z,100662.04
2022-09-12T16:27:25.686Z,100664.86
2022-09-12T16:29:57.981Z,100665.01
2022-09-12T16:32:30.047Z,100666.20
2022-09-12T16:35:02.463Z,100667.66
2022-09-12T16:37:35.826Z,100666.52
2022-09-12T16:40:10.257Z,100667.84
2022-09-12T16:42:43.836Z,100661.68
2022-09-12T16:45:16.588Z,100660.33
2022-09-12T16:47:49.059Z,100659.56
2022-09-12T16:50:21.364Z,100658.38
2022-09-12T16:52:53.409Z,100653.45
2022-09-12T16:55:25.950Z,100648.60
2022-09-12T16:57:57.889Z,100651.39
2022-09-12T17:00:29.830Z,100646.80
2022-09-12T17:03:03.167Z,100644.65
2022-09-12T17:05:35.177Z,100644.75
2022-09-12T17:08:08.344Z,100642.59
2022-09-12T17:10:43.640Z,100641.77
2022-09-12T17:13:15.988Z,100641.81
2022-09-12T17:15:48.272Z,100643.81
2022-09-12T17:18:20.403Z,100642.77
2022-09-12T17:20:52.720Z,100648.13
2022-09-12T17:23:24.811Z,100649.77
2022-09-12T17:25:56.904Z,100649.90
2022-09-12T17:28:29.459Z,100649.59
2022-09-12T17:31:04.529Z,100651.90
2022-09-12T17:33:35.175Z,100652.48
2022-09-12T17:36:11.229Z,100652.12
2022-09-12T17:38:44.419Z,100649.23
2022-09-12T17:41:18.646Z,100655.73
2022-09-12T17:43:52.898Z,100650.36
2022-09-12T17:46:26.929Z,100650.46
2022-09-12T17:49:01.252Z,100651.20
2022-09-12T17:51:34.016Z,100651.45
2022-09-12T17:54:08.481Z,100654.92
2022-09-12T17:56:41.247Z,100651.71
2022-09-12T17:59:18.842Z,100649.17
2022-09-12T18:02:09.198Z,100648.64
2022-09-12T18:04:41.803Z,100644.38
2022-09-12T18:07:14.354Z,100644.29
2022-09-12T18:09:47.723Z,100638.07
2022-09-12T18:12:20.967Z,100651.70
2022-09-12T18:14:53.875Z,100649.54
2022-09-12T18:17:26.199Z,100650.42
2022-09-12T18:19:58.542Z,100650.86
2022-09-12T18:22:30.616Z,100650.79
2022-09-12T18:25:02.649Z,100653.70
2022-09-12T18:27:34.694Z,100651.77
2022-09-12T18:30:21.261Z,100651.48
2022-09-12T18:32:53.766Z,100652.86
2022-09-12T18:35:25.887Z,100650.63
2022-09-12T18:37:58.035Z,100652.02
2022-09-12T18:40:30.074Z,100651.13
2022-09-12T18:43:02.106Z,100649.69
2022-09-12T18:45:34.905Z,100648.50
2022-09-12T18:48:08.110Z,100647.07
2022-09-12T18:50:40.495Z,100643.54
2022-09-12T18:53:12.568Z,100647.42
2022-09-12T18:55:45.076Z,100643.89
2022-09-12T18:58:17.682Z,100632.54
2022-09-12T19:00:49.878Z,100639.52
2022-09-12T19:03:21.846Z,100640.50
2022-09-12T19:05:53.986Z,100637.61
2022-09-12T19:08:26.141Z,100634.08
2022-09-12T19:10:59.306Z,100629.38
2022-09-12T19:13:32.051Z,100635.07
2022-09-12T19:16:05.635Z,100637.42
2022-09-12T19:18:39.034Z,100635.02
2022-09-12T19:21:15.060Z,100634.46
2022-09-12T19:23:47.542Z,100634.23
2022-09-12T19:26:20.895Z,100632.46
2022-09-12T19:28:54.635Z,100630.54
2022-09-12T19:31:27.307Z,100627.71
2022-09-12T19:34:03.436Z,100628.44
2022-09-12T19:36:51.439Z,100627.73
2022-09-12T19:39:24.009Z,100626.53
2022-09-12T19:41:56.475Z,100626.38
2022-09-12T19:44:29.339Z,100629.52
2022-09-12T19:47:01.603Z,100626.89
2022-09-12T19:49:34.745Z,100624.80
2022-09-12T19:52:06.952Z,100620.14
2022-09-12T19:54:39.112Z,100618.48
2022-09-12T19:57:11.200Z,100616.30
2022-09-12T19:59:43.191Z,100616.14
2022-09-12T20:02:16.032Z,100611.27
2022-09-12T20:04:48.482Z,100609.82
2022-09-12T20:07:20.540Z,100607.58
2022-09-12T20:09:52.911Z,100598.21
2022-09-12T20:12:24.903Z,100603.90
2022-09-12T20:14:57.167Z,100605.27
2022-09-12T20:17:29.798Z,100604.71
2022-09-12T20:20:02.305Z,100604.86
2022-09-12T20:22:39.342Z,100603.98
2022-09-12T20:25:12.435Z,100606.32
2022-09-12T20:27:44.550Z,100605.59
2022-09-12T20:30:17.264Z,100608.23
2022-09-12T20:32:50.313Z,100593.19
2022-09-12T20:35:23.236Z,100604.14
2022-09-12T20:37:55.366Z,100597.10
2022-09-12T20:40:27.492Z,100599.34
2022-09-12T20:42:59.685Z,100584.51
2022-09-12T20:45:31.826Z,100599.27
2022-09-12T20:48:04.986Z,100597.66
2022-09-12T20:50:37.329Z,100596.21
2022-09-12T20:53:09.957Z,100596.70
2022-09-12T20:55:42.350Z,100592.45
2022-09-12T20:58:14.875Z,100590.38
2022-09-12T21:00:47.409Z,100589.73
2022-09-12T21:03:20.035Z,100589.48
2022-09-12T21:05:52.023Z,100590.54
2022-09-12T21:08:24.036Z,100593.66
2022-09-12T21:10:56.027Z,100588.94
2022-09-12T21:13:28.155Z,100588.21
2022-09-12T21:16:04.766Z,100583.95
2022-09-12T21:18:37.764Z,100585.46
2022-09-12T21:21:11.186Z,100586.66
2022-09-12T21:23:43.838Z,100589.14
2022-09-12T21:26:16.046Z,100586.73
2022-09-12T21:28:49.150Z,100587.60
2022-09-12T21:31:21.560Z,100582.00
2022-09-12T21:33:54.028Z,100579.98
2022-09-12T21:36:26.595Z,100580.63
2022-09-12T21:39:01.204Z,100567.82
2022-09-12T21:41:33.190Z,100576.80
2022-09-12T21:44:05.545Z,100577.35
2022-09-12T21:46:37.711Z,100575.98
2022-09-12T21:49:09.817Z,100577.10
2022-09-12T21:51:42.012Z,100575.02
2022-09-12T21:54:14.063Z,100576.31
2022-09-12T21:56:46.067Z,100576.37
2022-09-12T21:59:18.001Z,100583.25
2022-09-12T22:01:50.339Z,100579.72
2022-09-12T22:04:22.730Z,100581.50
2022-09-12T22:06:54.638Z,100580.30
2022-09-12T22:09:26.720Z,100580.22
2022-09-12T22:11:58.680Z,100574.68
2022-09-12T22:14:31.230Z,100572.77
2022-09-12T22:17:03.740Z,100569.70
2022-09-12T22:19:37.629Z,100568.27
2022-09-12T22:22:27.680Z,100573.54
2022-09-12T22:24:59.734Z,100568.58
2022-09-12T22:27:31.665Z,100561.67
2022-09-12T22:30:03.690Z,100553.52
2022-09-12T22:32:38.300Z,100558.71
2022-09-12T22:35:10.902Z,100555.44
2022-09-12T22:37:43.366Z,100556.31
2022-09-12T22:40:15.705Z,100553.11
2022-09-12T22:42:48.188Z,100547.27
2022-09-12T22:45:21.031Z,100542.30
2022-09-12T22:47:53.052Z,100533.81
2022-09-12T22:50:25.271Z,100530.77
2022-09-12T22:52:58.314Z,100529.40
2022-09-12T22:55:30.543Z,100530.21
2022-09-12T22:58:03.704Z,100514.10
2022-09-12T23:00:36.366Z,100520.83
2022-09-12T23:03:08.547Z,100518.50
2022-09-12T23:05:40.948Z,100522.98
2022-09-12T23:08:12.885Z,100510.73
2022-09-12T23:10:45.518Z,100503.36
2022-09-12T23:13:17.526Z,100514.10
2022-09-12T23:15:49.863Z,100510.27
2022-09-12T23:18:21.779Z,100497.20
2022-09-12T23:21:02.141Z,100510.90
2022-09-12T23:23:35.503Z,100506.90
2022-09-12T23:26:13.352Z,100505.06
2022-09-12T23:28:50.769Z,100502.50
2022-09-12T23:31:24.042Z,100497.63
2022-09-12T23:33:56.953Z,100496.48
2022-09-12T23:36:29.815Z,100490.00
2022-09-12T23:39:02.237Z,100491.45
2022-09-12T23:41:34.318Z,100487.44
2022-09-12T23:44:06.702Z,100483.92
2022-09-12T23:46:39.086Z,100483.52
2022-09-12T23:49:10.985Z,100477.91
2022-09-12T23:51:43.145Z,100480.23
2022-09-12T23:54:15.496Z,100479.76
2022-09-12T23:56:48.060Z,100480.64
2022-09-12T23:59:19.981Z,100474.95
